createdAt,value
2019-04-16T00:05:05.367Z,26.00
2019-04-16T00:10:14.270Z,25.22
2019-04-16T00:15:23.253Z,25.59
2019-04-16T00:20:36.884Z,25.22
2019-04-16T00:25:40.712Z,25.73
2019-04-16T00:30:48.202Z,26.09
2019-04-16T00:35:57.180Z,24.89
2019-04-16T00:41:06.186Z,26.72
2019-04-16T00:46:15.155Z,25.83
2019-04-16T00:51:24.096Z,27.16
2019-04-16T00:56:33.139Z,26.48
2019-04-16T01:01:42.086Z,26.90
2019-04-16T01:06:51.083Z,27.36
2019-04-16T01:11:59.995Z,28.53
2019-04-16T01:17:08.994Z,28.16
2019-04-16T01:22:17.911Z,30.10
2019-04-16T01:27:28.777Z,30.12
2019-04-16T01:32:36.538Z,30.07
2019-04-16T01:37:45.555Z,30.65
2019-04-16T01:42:55.220Z,30.52
2019-04-16T01:48:07.072Z,30.25
2019-04-16T01:53:11.538Z,31.54
2019-04-16T01:58:20.567Z,30.89
2019-04-16T02:03:29.885Z,32.06
2019-04-16T02:08:38.859Z,30.71
2019-04-16T02:13:47.852Z,30.67
2019-04-16T02:19:00.813Z,30.60
2019-04-16T02:24:07.527Z,30.63
2019-04-16T02:29:06.522Z,31.11
2019-04-16T02:34:15.416Z,31.30
2019-04-16T02:39:46.304Z,32.00
2019-04-16T02:44:32.846Z,32.29
2019-04-16T02:49:41.868Z,33.84
2019-04-16T02:54:50.817Z,34.11
2019-04-16T02:59:59.826Z,33.99
2019-04-16T03:05:09.422Z,33.42
2019-04-16T03:10:18.415Z,33.69
2019-04-16T03:15:30.250Z,33.52
2019-04-16T03:20:36.854Z,33.78
2019-04-16T03:25:48.739Z,34.06
2019-04-16T03:30:47.796Z,34.95
2019-04-16T03:35:57.810Z,34.42
2019-04-16T03:41:05.463Z,34.50
2019-04-16T03:46:14.571Z,35.06
2019-04-16T03:51:23.280Z,35.64
2019-04-16T03:56:32.269Z,34.71
2019-04-16T04:01:45.824Z,35.89
2019-04-16T04:06:51.954Z,35.32
2019-04-16T04:11:50.891Z,34.77
2019-04-16T04:17:05.343Z,35.40
2019-04-16T04:22:08.488Z,35.12
2019-04-16T04:27:19.350Z,34.52
2019-04-16T04:32:25.864Z,33.69
2019-04-16T04:37:34.781Z,34.61
2019-04-16T04:42:43.721Z,34.24
2019-04-16T04:47:52.631Z,34.18
2019-04-16T04:53:01.832Z,33.39
2019-04-16T04:58:10.671Z,33.42
2019-04-16T05:03:27.266Z,32.91
2019-04-16T05:08:28.628Z,32.81
2019-04-16T05:13:33.146Z,33.30
2019-04-16T05:18:42.674Z,32.64
2019-04-16T05:23:50.483Z,33.43
2019-04-16T05:28:59.345Z,32.66
2019-04-16T05:34:08.340Z,34.36
2019-04-16T05:39:17.196Z,33.90
2019-04-16T05:44:26.267Z,34.06
2019-04-16T05:49:35.451Z,33.30
2019-04-16T05:54:46.576Z,33.92
2019-04-16T05:59:45.477Z,32.70
2019-04-16T06:04:55.956Z,33.48
2019-04-16T06:10:02.936Z,33.69
2019-04-16T06:15:11.953Z,34.56
2019-04-16T06:20:21.425Z,34.41
2019-04-16T06:25:29.348Z,34.97
2019-04-16T06:30:38.193Z,34.39
2019-04-16T06:35:47.238Z,34.56
2019-04-16T06:40:56.127Z,34.34
2019-04-16T06:46:05.476Z,34.53
2019-04-16T06:51:13.562Z,33.40
2019-04-16T06:56:22.631Z,33.42
2019-04-16T07:01:31.413Z,34.67
2019-04-16T07:06:40.364Z,33.86
2019-04-16T07:11:54.529Z,34.27
2019-04-16T07:16:59.795Z,35.07
2019-04-16T07:22:05.661Z,35.73
2019-04-16T07:27:19.605Z,35.87
2019-04-16T07:32:23.089Z,35.55
2019-04-16T07:37:33.065Z,34.88
2019-04-16T07:42:51.338Z,36.06
2019-04-16T07:47:51.687Z,34.85
2019-04-16T07:52:57.320Z,35.30
2019-04-16T07:58:06.258Z,35.26
2019-04-16T08:03:15.146Z,36.06
2019-04-16T08:08:24.739Z,35.95
2019-04-16T08:13:33.625Z,34.67
2019-04-16T08:18:41.061Z,35.91
2019-04-16T08:23:51.852Z,35.48
2019-04-16T08:28:57.319Z,35.05
2019-04-16T08:34:06.232Z,35.54
2019-04-16T08:39:15.163Z,35.35
2019-04-16T08:44:24.043Z,35.79
2019-04-16T08:49:32.963Z,34.78
2019-04-16T08:54:41.835Z,36.63
2019-04-16T08:59:50.924Z,35.71
2019-04-16T09:04:59.857Z,35.05
2019-04-16T09:10:17.090Z,36.10
2019-04-16T09:15:17.667Z,34.63
2019-04-16T09:20:26.690Z,33.15
2019-04-16T09:25:35.563Z,34.93
2019-04-16T09:30:46.715Z,34.98
2019-04-16T09:35:52.936Z,35.50
2019-04-16T09:41:01.873Z,34.14
2019-04-16T09:46:15.888Z,33.75
2019-04-16T09:51:20.550Z,33.54
2019-04-16T09:56:35.374Z,34.09
2019-04-16T10:01:34.567Z,33.72
2019-04-16T10:06:43.503Z,34.31
2019-04-16T10:11:52.481Z,33.91
2019-04-16T10:17:01.375Z,36.11
2019-04-16T10:22:10.840Z,35.07
2019-04-16T10:27:18.928Z,35.67
2019-04-16T10:32:27.894Z,36.72
2019-04-16T10:37:36.742Z,36.76
2019-04-16T10:42:45.727Z,35.86
2019-04-16T10:47:54.688Z,36.17
2019-04-16T10:53:03.850Z,36.44
2019-04-16T10:58:12.892Z,36.14
2019-04-16T11:03:21.840Z,36.97
2019-04-16T11:08:30.758Z,39.53
2019-04-16T11:13:40.548Z,38.83
2019-04-16T11:18:49.487Z,41.12
2019-04-16T11:23:59.473Z,41.51
2019-04-16T11:29:04.042Z,40.10
2019-04-16T11:34:03.249Z,39.41
2019-04-16T11:39:12.046Z,40.74
2019-04-16T11:44:21.574Z,41.67
2019-04-16T11:49:30.478Z,39.92
2019-04-16T11:54:39.443Z,41.90
2019-04-16T11:59:48.507Z,41.75
2019-04-16T12:04:59.180Z,40.08
2019-04-16T12:10:05.988Z,41.79
2019-04-16T12:15:15.466Z,44.44
2019-04-16T12:20:24.557Z,44.18
2019-04-16T12:25:33.821Z,44.26
2019-04-16T12:30:42.743Z,45.13
2019-04-16T12:35:51.828Z,45.70
2019-04-16T12:41:00.719Z,45.47
2019-04-16T12:46:09.712Z,46.31
2019-04-16T12:51:18.612Z,45.58
2019-04-16T12:56:30.925Z,44.95
2019-04-16T13:01:28.451Z,45.92
2019-04-16T13:06:37.439Z,45.65
2019-04-16T13:11:44.927Z,43.95
2019-04-16T13:16:53.908Z,43.49
2019-04-16T13:22:04.247Z,44.03
2019-04-16T13:27:03.104Z,42.87
2019-04-16T13:32:11.997Z,43.49
2019-04-16T13:37:22.567Z,42.56
2019-04-16T13:42:23.866Z,43.45
2019-04-16T13:47:22.943Z,38.01
2019-04-16T13:52:32.392Z,38.65
2019-04-16T13:57:42.426Z,37.77
2019-04-16T14:02:41.274Z,30.25
2019-04-16T14:07:50.309Z,31.40
2019-04-16T14:12:59.324Z,31.86
2019-04-16T14:18:08.403Z,31.10
2019-04-16T14:23:17.360Z,30.98
2019-04-16T14:28:26.431Z,32.30
2019-04-16T14:33:35.675Z,30.87
2019-04-16T14:38:44.724Z,31.35
2019-04-16T14:43:53.694Z,30.38
2019-04-16T14:49:02.702Z,29.87
2019-04-16T14:54:11.583Z,27.45
2019-04-16T14:59:30.273Z,29.74
2019-04-16T15:04:29.516Z,30.15
2019-04-16T15:09:38.548Z,28.62
2019-04-16T15:14:47.478Z,30.58
2019-04-16T15:19:56.484Z,30.78
2019-04-16T15:25:05.415Z,30.54
2019-04-16T15:30:14.371Z,29.26
2019-04-16T15:35:23.298Z,29.07
2019-04-16T15:40:32.308Z,27.64
2019-04-16T15:45:41.226Z,26.64
2019-04-16T15:50:50.556Z,28.35
2019-04-16T15:56:00.228Z,27.36
2019-04-16T16:01:09.203Z,24.98
2019-04-16T16:06:20.336Z,25.82
2019-04-16T16:11:27.851Z,25.68
2019-04-16T16:16:41.133Z,26.05
2019-04-16T16:21:35.700Z,26.97
2019-04-16T16:26:44.654Z,24.96
2019-04-16T16:31:53.649Z,25.48
2019-04-16T16:37:02.647Z,28.23
2019-04-16T16:42:11.708Z,27.74
2019-04-16T16:47:20.731Z,26.92
2019-04-16T16:52:28.375Z,28.11
2019-04-16T16:57:37.435Z,28.06
2019-04-16T17:02:45.019Z,29.61
2019-04-16T17:07:54.831Z,30.02
2019-04-16T17:13:02.456Z,35.34
2019-04-16T17:18:11.342Z,29.23
2019-04-16T17:23:20.299Z,29.48
2019-04-16T17:28:29.205Z,29.77
2019-04-16T17:33:38.338Z,28.41
2019-04-16T17:38:47.231Z,28.75
2019-04-16T17:44:01.889Z,27.97
2019-04-16T17:49:04.969Z,31.37
2019-04-16T17:54:14.064Z,30.63
2019-04-16T17:59:22.948Z,33.52
2019-04-16T18:04:33.508Z,36.77
2019-04-16T18:09:32.347Z,45.12
2019-04-16T18:14:41.309Z,44.25
2019-04-16T18:19:50.231Z,45.26
2019-04-16T18:24:59.588Z,40.88
2019-04-16T18:30:08.490Z,42.85
2019-04-16T18:35:17.439Z,44.88
2019-04-16T18:40:26.922Z,41.52
2019-04-16T18:45:35.892Z,44.61
2019-04-16T18:50:44.845Z,38.91
2019-04-16T18:55:54.274Z,39.61
2019-04-16T19:01:03.031Z,39.81
2019-04-16T19:06:12.093Z,39.12
2019-04-16T19:11:21.368Z,41.17
2019-04-16T19:16:30.746Z,41.49
2019-04-16T19:21:42.439Z,41.29
2019-04-16T19:26:48.563Z,40.44
2019-04-16T19:31:57.623Z,40.43
2019-04-16T19:37:06.722Z,37.77
2019-04-16T19:42:15.624Z,52.39
2019-04-16T19:47:26.418Z,46.74
2019-04-16T19:52:33.297Z,44.83
2019-04-16T19:57:42.501Z,41.34
2019-04-16T20:02:51.780Z,40.74
2019-04-16T20:07:59.449Z,38.35
2019-04-16T20:13:08.622Z,35.49
2019-04-16T20:18:17.611Z,36.23
2019-04-16T20:23:26.611Z,36.20
2019-04-16T20:28:37.781Z,36.87
2019-04-16T20:33:36.629Z,35.89
2019-04-16T20:38:45.582Z,35.45
2019-04-16T20:43:54.459Z,35.84
2019-04-16T20:49:09.127Z,38.99
2019-04-16T20:54:13.782Z,39.82
2019-04-16T20:59:21.043Z,39.62
2019-04-16T21:04:30.098Z,39.23
2019-04-16T21:09:39.085Z,40.28
2019-04-16T21:14:50.925Z,38.57
2019-04-16T21:19:56.567Z,37.76
2019-04-16T21:25:05.555Z,37.03
2019-04-16T21:30:14.543Z,37.10
2019-04-16T21:35:22.090Z,38.72
2019-04-16T21:40:31.091Z,38.75
2019-04-16T21:45:39.970Z,38.78
2019-04-16T21:50:49.057Z,37.81
2019-04-16T21:55:57.923Z,36.52
2019-04-16T22:01:06.880Z,36.43
2019-04-16T22:06:19.758Z,36.98
2019-04-16T22:11:24.296Z,36.71
2019-04-16T22:16:31.727Z,37.82
2019-04-16T22:21:42.813Z,36.92
2019-04-16T22:26:49.367Z,36.57
2019-04-16T22:31:58.674Z,33.93
2019-04-16T22:37:06.674Z,34.29
2019-04-16T22:42:15.631Z,34.09
2019-04-16T22:47:24.832Z,36.61
2019-04-16T22:52:33.781Z,36.68
2019-04-16T22:57:42.673Z,36.25
2019-04-16T23:02:51.791Z,36.60
2019-04-16T23:08:00.697Z,36.94
2019-04-16T23:13:09.658Z,34.79
2019-04-16T23:18:18.721Z,35.36
2019-04-16T23:23:27.682Z,34.51
2019-04-16T23:28:39.655Z,35.17
2019-04-16T23:33:45.264Z,34.24
2019-04-16T23:38:54.256Z,34.44
2019-04-16T23:44:03.247Z,33.59
2019-04-16T23:49:12.547Z,35.25
2019-04-16T23:54:21.921Z,35.05
2019-04-16T23:59:32.705Z,34.45
